createdAt,value
2023-04-14T00:01:38.902Z,5.60
2023-04-14T00:04:05.906Z,5.60
2023-04-14T00:06:32.950Z,5.60
2023-04-14T00:08:59.942Z,5.60
2023-04-14T00:11:27.288Z,5.60
2023-04-14T00:13:55.929Z,5.60
2023-04-14T00:16:23.763Z,5.70
2023-04-14T00:18:50.474Z,5.80
2023-04-14T00:21:17.151Z,5.70
2023-04-14T00:23:43.800Z,5.80
2023-04-14T00:26:10.534Z,5.80
2023-04-14T00:28:37.245Z,5.80
2023-04-14T00:31:04.015Z,5.60
2023-04-14T00:33:30.729Z,5.60
2023-04-14T00:35:57.573Z,5.60
2023-04-14T00:38:25.349Z,5.70
2023-04-14T00:40:52.038Z,5.70
2023-04-14T00:43:19.621Z,5.80
2023-04-14T00:45:48.057Z,5.80
2023-04-14T00:48:17.348Z,5.80
2023-04-14T00:50:44.424Z,5.80
2023-04-14T00:53:12.636Z,5.80
2023-04-14T00:55:41.284Z,5.80
2023-04-14T00:58:08.734Z,5.80
2023-04-14T01:00:36.202Z,5.80
2023-04-14T01:03:03.374Z,5.90
2023-04-14T01:05:30.613Z,5.80
2023-04-14T01:07:57.780Z,5.80
2023-04-14T01:10:30.885Z,5.80
2023-04-14T01:13:33.522Z,5.70
2023-04-14T01:16:05.314Z,5.60
2023-04-14T01:18:59.042Z,5.60
2023-04-14T01:21:33.078Z,5.60
2023-04-14T01:24:02.791Z,5.50
2023-04-14T01:26:31.179Z,5.50
2023-04-14T01:29:35.234Z,5.40
2023-04-14T01:32:11.449Z,5.30
2023-04-14T01:34:46.625Z,5.30
2023-04-14T01:37:17.843Z,5.20
2023-04-14T01:39:52.964Z,5.20
2023-04-14T01:42:25.257Z,5.20
2023-04-14T01:44:59.764Z,5.20
2023-04-14T01:47:26.657Z,5.20
2023-04-14T01:49:54.228Z,5.20
2023-04-14T01:52:22.567Z,5.20
2023-04-14T01:54:52.848Z,5.20
2023-04-14T01:57:22.826Z,5.30
2023-04-14T01:59:52.588Z,5.30
2023-04-14T02:02:21.480Z,5.30
2023-04-14T02:04:49.392Z,5.20
2023-04-14T02:07:18.372Z,5.20
2023-04-14T02:09:46.134Z,5.20
2023-04-14T02:12:13.026Z,5.30
2023-04-14T02:14:42.691Z,5.30
2023-04-14T02:17:13.438Z,5.30
2023-04-14T02:19:43.997Z,5.30
2023-04-14T02:22:10.857Z,5.30
2023-04-14T02:24:37.818Z,5.20
2023-04-14T02:27:10.554Z,5.30
2023-04-14T02:29:41.198Z,5.30
2023-04-14T02:32:11.710Z,5.30
2023-04-14T02:34:47.871Z,5.30
2023-04-14T02:37:21.595Z,5.20
2023-04-14T02:39:57.029Z,5.20
2023-04-14T02:42:27.425Z,5.30
2023-04-14T02:45:03.086Z,5.30
2023-04-14T02:47:33.699Z,5.30
2023-04-14T02:50:03.122Z,5.30
2023-04-14T02:52:32.155Z,5.40
2023-04-14T02:55:00.240Z,5.40
2023-04-14T02:57:27.792Z,5.40
2023-04-14T02:59:55.306Z,5.40
2023-04-14T03:02:22.838Z,5.50
2023-04-14T03:04:49.885Z,5.50
2023-04-14T03:07:19.388Z,5.60
2023-04-14T03:09:49.200Z,5.70
2023-04-14T03:12:17.602Z,5.70
2023-04-14T03:14:45.439Z,5.70
2023-04-14T03:17:14.967Z,5.70
2023-04-14T03:19:44.214Z,5.70
2023-04-14T03:22:12.491Z,5.70
2023-04-14T03:24:40.408Z,5.70
2023-04-14T03:27:22.968Z,5.70
2023-04-14T03:29:53.771Z,5.70
2023-04-14T03:32:26.409Z,5.80
2023-04-14T03:34:57.955Z,5.80
2023-04-14T03:37:27.320Z,5.70
2023-04-14T03:40:00.445Z,5.70
2023-04-14T03:42:29.413Z,5.80
2023-04-14T03:44:58.537Z,5.80
2023-04-14T03:47:28.613Z,5.70
2023-04-14T03:50:01.368Z,5.70
2023-04-14T03:52:33.066Z,5.70
2023-04-14T03:55:06.178Z,5.50
2023-04-14T03:57:33.906Z,5.30
2023-04-14T04:00:05.010Z,5.20
2023-04-14T04:02:33.272Z,5.20
2023-04-14T04:05:03.537Z,5.20
2023-04-14T04:07:32.139Z,5.30
2023-04-14T04:09:59.930Z,5.20
2023-04-14T04:12:28.070Z,5.20
2023-04-14T04:14:54.846Z,5.20
2023-04-14T04:17:24.308Z,5.10
2023-04-14T04:19:53.580Z,5.10
2023-04-14T04:22:21.942Z,5.10
2023-04-14T04:24:50.614Z,5.10
2023-04-14T04:27:27.815Z,5.20
2023-04-14T04:29:55.684Z,5.20
2023-04-14T04:32:23.639Z,5.10
2023-04-14T04:34:51.254Z,5.10
2023-04-14T04:37:19.353Z,5.00
2023-04-14T04:39:48.115Z,5.10
2023-04-14T04:42:14.790Z,5.10
2023-04-14T04:44:41.792Z,5.10
2023-04-14T04:47:09.353Z,5.10
2023-04-14T04:49:36.070Z,5.10
2023-04-14T04:52:02.794Z,5.10
2023-04-14T04:54:29.718Z,5.00
2023-04-14T04:56:57.724Z,5.10
2023-04-14T04:59:25.023Z,5.10
2023-04-14T05:01:52.195Z,5.10
2023-04-14T05:04:19.125Z,5.10
2023-04-14T05:06:45.902Z,5.00
2023-04-14T05:09:12.810Z,5.10
2023-04-14T05:11:39.517Z,5.00
2023-04-14T05:14:06.467Z,4.90
2023-04-14T05:16:33.544Z,4.90
2023-04-14T05:19:00.790Z,4.90
2023-04-14T05:21:29.985Z,4.90
2023-04-14T05:23:56.871Z,4.90
2023-04-14T05:28:53.341Z,4.90
2023-04-14T05:31:20.460Z,5.00
2023-04-14T05:33:47.349Z,5.00
2023-04-14T05:36:14.135Z,5.10
2023-04-14T05:38:41.098Z,5.10
2023-04-14T05:41:07.924Z,5.10
2023-04-14T05:43:34.837Z,5.20
2023-04-14T05:46:01.913Z,5.20
2023-04-14T05:48:30.750Z,5.20
2023-04-14T05:50:58.358Z,5.30
2023-04-14T05:53:25.427Z,5.20
2023-04-14T05:55:52.740Z,5.20
2023-04-14T05:58:19.963Z,5.10
2023-04-14T06:00:46.850Z,5.20
2023-04-14T06:03:13.849Z,5.20
2023-04-14T06:05:41.009Z,5.20
2023-04-14T06:08:07.733Z,5.20
2023-04-14T06:10:35.875Z,5.20
2023-04-14T06:13:02.629Z,5.20
2023-04-14T06:15:29.833Z,5.30
2023-04-14T06:17:56.798Z,5.30
2023-04-14T06:20:23.677Z,5.40
2023-04-14T06:22:50.499Z,5.40
2023-04-14T06:25:17.559Z,5.60
2023-04-14T06:27:44.362Z,5.60
2023-04-14T06:30:11.919Z,5.70
2023-04-14T06:32:38.823Z,5.80
2023-04-14T06:35:06.032Z,5.90
2023-04-14T06:37:32.758Z,6.00
2023-04-14T06:39:59.437Z,6.00
2023-04-14T06:42:26.232Z,6.10
2023-04-14T06:44:53.000Z,6.10
2023-04-14T06:47:21.074Z,6.20
2023-04-14T06:49:47.982Z,6.20
2023-04-14T06:52:14.768Z,6.40
2023-04-14T06:54:42.303Z,6.20
2023-04-14T06:57:09.372Z,6.20
2023-04-14T06:59:36.735Z,6.20
2023-04-14T07:02:03.632Z,6.30
2023-04-14T07:04:30.572Z,6.40
2023-04-14T07:07:03.351Z,6.50
2023-04-14T07:09:30.240Z,6.60
2023-04-14T07:11:57.633Z,6.70
2023-04-14T07:14:24.908Z,6.80
2023-04-14T07:16:52.891Z,6.90
2023-04-14T07:19:20.095Z,6.90
2023-04-14T07:21:47.348Z,6.90
2023-04-14T07:24:15.655Z,7.00
2023-04-14T07:26:44.224Z,7.10
2023-04-14T07:29:11.129Z,7.20
2023-04-14T07:31:38.935Z,7.20
2023-04-14T07:34:06.327Z,7.20
2023-04-14T07:36:33.257Z,7.20
2023-04-14T07:39:00.247Z,7.30
2023-04-14T07:41:28.118Z,7.30
2023-04-14T07:43:55.829Z,7.40
2023-04-14T07:46:22.792Z,7.50
2023-04-14T07:48:49.621Z,7.50
2023-04-14T07:51:16.698Z,7.50
2023-04-14T07:53:45.144Z,7.30
2023-04-14T07:56:12.559Z,7.20
2023-04-14T07:58:39.324Z,7.20
2023-04-14T08:01:06.513Z,7.10
2023-04-14T08:03:33.634Z,7.10
2023-04-14T08:06:00.465Z,7.10
2023-04-14T08:08:28.257Z,7.10
2023-04-14T08:10:54.994Z,7.30
2023-04-14T08:13:21.814Z,7.20
2023-04-14T08:15:48.929Z,7.20
2023-04-14T08:18:15.720Z,7.20
2023-04-14T08:20:42.464Z,7.30
2023-04-14T08:23:09.252Z,7.50
2023-04-14T08:25:36.068Z,7.60
2023-04-14T08:28:02.765Z,7.90
2023-04-14T08:30:29.787Z,8.00
2023-04-14T08:32:59.178Z,8.10
2023-04-14T08:35:38.313Z,8.20
2023-04-14T08:38:07.514Z,8.50
2023-04-14T08:40:40.159Z,8.50
2023-04-14T08:43:07.483Z,8.60
2023-04-14T08:45:35.175Z,8.70
2023-04-14T08:48:06.184Z,9.00
2023-04-14T08:50:43.571Z,9.20
2023-04-14T08:53:11.016Z,9.50
2023-04-14T08:55:41.908Z,9.70
2023-04-14T08:58:10.801Z,9.60
2023-04-14T09:00:40.327Z,9.40
2023-04-14T09:03:09.285Z,9.30
2023-04-14T09:05:36.620Z,9.20
2023-04-14T09:08:04.353Z,9.20
2023-04-14T09:10:31.821Z,9.40
2023-04-14T09:12:58.842Z,9.80
2023-04-14T09:15:28.899Z,9.80
2023-04-14T09:17:56.423Z,9.90
2023-04-14T09:20:38.392Z,10.30
2023-04-14T09:23:10.885Z,10.30
2023-04-14T09:25:41.732Z,10.00
2023-04-14T09:28:08.592Z,9.90
2023-04-14T09:30:35.702Z,9.90
2023-04-14T09:33:06.061Z,9.70
2023-04-14T09:35:47.607Z,9.70
2023-04-14T09:38:16.146Z,9.50
2023-04-14T09:40:47.428Z,9.50
2023-04-14T09:43:25.455Z,9.60
2023-04-14T09:45:53.055Z,9.80
2023-04-14T09:48:21.020Z,9.90
2023-04-14T09:51:09.905Z,10.10
2023-04-14T09:53:38.026Z,10.20
2023-04-14T09:56:09.683Z,10.40
2023-04-14T09:58:39.145Z,10.60
2023-04-14T10:01:14.800Z,11.10
2023-04-14T10:03:49.427Z,11.50
2023-04-14T10:06:21.261Z,11.30
2023-04-14T10:08:50.141Z,11.00
2023-04-14T10:11:29.512Z,10.80
2023-04-14T10:14:02.030Z,10.70
2023-04-14T10:16:28.940Z,10.60
2023-04-14T10:18:57.641Z,10.30
2023-04-14T10:21:25.346Z,10.30
2023-04-14T10:23:52.358Z,10.40
2023-04-14T10:26:19.669Z,10.70
2023-04-14T10:28:50.084Z,11.20
2023-04-14T10:31:23.823Z,11.30
2023-04-14T10:33:50.839Z,11.40
2023-04-14T10:36:29.175Z,11.30
2023-04-14T10:39:02.659Z,11.30
2023-04-14T10:41:49.563Z,11.10
2023-04-14T10:44:29.794Z,10.70
2023-04-14T10:46:57.683Z,10.50
2023-04-14T10:49:35.860Z,10.30
2023-04-14T10:52:27.460Z,10.30
2023-04-14T10:54:57.297Z,10.30
2023-04-14T10:57:28.613Z,10.40
2023-04-14T10:59:59.807Z,10.70
2023-04-14T11:02:31.351Z,11.10
2023-04-14T11:05:05.676Z,11.60
2023-04-14T11:07:44.620Z,11.80
2023-04-14T11:10:17.639Z,11.60
2023-04-14T11:12:45.528Z,11.30
2023-04-14T11:15:12.806Z,11.20
2023-04-14T11:17:40.765Z,11.60
2023-04-14T11:20:18.540Z,11.10
2023-04-14T11:22:47.497Z,11.30
2023-04-14T11:25:15.871Z,11.60
2023-04-14T11:27:43.644Z,12.00
2023-04-14T11:30:21.330Z,12.20
2023-04-14T11:32:57.746Z,12.10
2023-04-14T11:35:26.744Z,11.90
2023-04-14T11:37:57.954Z,11.70
2023-04-14T11:40:29.442Z,11.60
2023-04-14T11:42:57.924Z,11.50
2023-04-14T11:45:31.740Z,11.50
2023-04-14T11:48:04.170Z,11.60
2023-04-14T11:50:33.343Z,11.80
2023-04-14T11:53:00.842Z,12.10
2023-04-14T11:55:28.488Z,12.30
2023-04-14T11:57:58.402Z,12.60
2023-04-14T12:00:25.439Z,12.90
2023-04-14T12:02:52.492Z,13.00
2023-04-14T12:05:25.561Z,13.30
2023-04-14T12:07:58.985Z,13.50
2023-04-14T12:10:26.467Z,13.40
2023-04-14T12:13:10.518Z,13.20
2023-04-14T12:15:41.554Z,12.90
2023-04-14T12:18:10.620Z,12.30
2023-04-14T12:20:46.563Z,12.30
2023-04-14T12:23:13.570Z,12.30
2023-04-14T12:25:40.529Z,12.40
2023-04-14T12:28:08.474Z,12.60
2023-04-14T12:30:36.683Z,12.60
2023-04-14T12:33:12.157Z,13.10
2023-04-14T12:35:40.378Z,13.50
2023-04-14T12:38:14.617Z,13.70
2023-04-14T12:40:47.955Z,13.60
2023-04-14T12:43:16.864Z,13.40
2023-04-14T12:45:45.375Z,13.10
2023-04-14T12:48:18.698Z,12.50
2023-04-14T12:50:45.629Z,12.40
2023-04-14T12:53:29.145Z,12.20
2023-04-14T12:56:27.414Z,12.20
2023-04-14T12:58:54.384Z,12.20
2023-04-14T13:01:22.504Z,12.10
2023-04-14T13:03:52.006Z,12.10
2023-04-14T13:06:24.023Z,12.20
2023-04-14T13:08:52.571Z,12.30
2023-04-14T13:11:20.693Z,12.50
2023-04-14T13:13:47.774Z,12.90
2023-04-14T13:16:17.520Z,13.20
2023-04-14T13:18:45.609Z,13.20
2023-04-14T13:21:12.765Z,13.40
2023-04-14T13:23:40.037Z,13.60
2023-04-14T13:26:06.868Z,13.50
2023-04-14T13:28:33.623Z,13.40
2023-04-14T13:31:01.032Z,13.10
2023-04-14T13:33:27.838Z,12.90
2023-04-14T13:35:55.707Z,12.70
2023-04-14T13:38:22.859Z,12.50
2023-04-14T13:40:49.878Z,12.40
2023-04-14T13:43:18.704Z,12.40
2023-04-14T13:45:46.546Z,12.50
2023-04-14T13:48:13.797Z,12.50
2023-04-14T13:50:40.714Z,12.60
2023-04-14T13:53:07.530Z,12.50
2023-04-14T13:55:36.188Z,12.30
2023-04-14T13:58:03.339Z,13.10
2023-04-14T14:00:30.406Z,15.00
2023-04-14T14:02:57.359Z,15.90
2023-04-14T14:05:24.298Z,17.70
2023-04-14T14:07:51.318Z,18.60
2023-04-14T14:10:18.116Z,19.90
2023-04-14T14:12:44.972Z,21.00
2023-04-14T14:15:12.424Z,22.10
2023-04-14T14:17:39.294Z,22.10
2023-04-14T14:20:07.522Z,22.50
2023-04-14T14:22:34.305Z,21.20
2023-04-14T14:25:15.241Z,20.50
2023-04-14T14:27:45.784Z,20.90
2023-04-14T14:30:13.066Z,21.00
2023-04-14T14:32:39.870Z,20.30
2023-04-14T14:35:07.022Z,20.60
2023-04-14T14:37:33.858Z,21.40
2023-04-14T14:40:01.081Z,22.30
2023-04-14T14:42:27.792Z,22.70
2023-04-14T14:44:54.521Z,23.00
2023-04-14T14:47:21.436Z,23.20
2023-04-14T14:49:59.494Z,23.60
2023-04-14T14:52:34.693Z,23.40
2023-04-14T14:55:02.309Z,22.60
2023-04-14T14:57:30.545Z,20.40
2023-04-14T14:59:57.946Z,21.00
2023-04-14T15:02:25.587Z,21.10
2023-04-14T15:04:53.453Z,21.10
2023-04-14T15:07:20.840Z,20.80
2023-04-14T15:09:49.186Z,21.30
2023-04-14T15:12:16.297Z,21.80
2023-04-14T15:14:43.055Z,22.20
2023-04-14T15:17:09.812Z,21.80
2023-04-14T15:19:37.524Z,21.80
2023-04-14T15:22:04.195Z,22.20
2023-04-14T15:24:30.958Z,22.20
2023-04-14T15:26:57.636Z,22.50
2023-04-14T15:29:27.011Z,22.50
2023-04-14T15:31:54.057Z,22.40
2023-04-14T15:34:21.501Z,22.10
2023-04-14T15:36:48.577Z,22.00
2023-04-14T15:39:15.484Z,21.10
2023-04-14T15:41:42.212Z,20.70
2023-04-14T15:44:08.947Z,21.00
2023-04-14T15:46:35.611Z,21.50
2023-04-14T15:49:02.345Z,21.90
2023-04-14T15:51:29.073Z,21.10
2023-04-14T15:53:55.751Z,19.70
2023-04-14T15:56:23.561Z,17.60
2023-04-14T15:58:50.592Z,17.40
2023-04-14T16:01:17.649Z,17.60
2023-04-14T16:03:44.934Z,16.80
2023-04-14T16:06:11.881Z,15.80
2023-04-14T16:08:38.932Z,15.00
2023-04-14T16:11:05.835Z,14.40
2023-04-14T16:13:32.797Z,14.10
2023-04-14T16:15:59.517Z,13.90
2023-04-14T16:18:26.680Z,13.50
2023-04-14T16:20:53.455Z,13.40
2023-04-14T16:23:20.689Z,13.20
2023-04-14T16:25:50.602Z,13.10
2023-04-14T16:28:17.555Z,12.90
2023-04-14T16:30:45.870Z,12.80
2023-04-14T16:33:13.098Z,12.70
2023-04-14T16:35:40.167Z,12.60
2023-04-14T16:38:08.766Z,12.40
2023-04-14T16:40:36.605Z,12.50
2023-04-14T16:43:04.110Z,12.50
2023-04-14T16:45:32.188Z,12.60
2023-04-14T16:47:59.271Z,12.60
2023-04-14T16:50:26.392Z,12.60
2023-04-14T16:52:53.223Z,12.90
2023-04-14T16:55:19.972Z,13.30
2023-04-14T16:57:46.939Z,13.50
2023-04-14T17:00:14.209Z,13.70
2023-04-14T17:02:41.303Z,13.70
2023-04-14T17:05:10.343Z,13.50
2023-04-14T17:07:37.221Z,13.20
2023-04-14T17:10:04.211Z,13.00
2023-04-14T17:12:30.951Z,12.80
2023-04-14T17:14:57.790Z,12.60
2023-04-14T17:17:24.589Z,12.50
2023-04-14T17:19:51.628Z,12.50
2023-04-14T17:22:18.482Z,12.50
2023-04-14T17:24:45.826Z,12.40
2023-04-14T17:27:13.056Z,12.40
2023-04-14T17:29:41.149Z,12.10
2023-04-14T17:32:08.355Z,11.80
2023-04-14T17:34:35.163Z,11.70
2023-04-14T17:37:02.195Z,11.70
2023-04-14T17:39:28.925Z,11.60
2023-04-14T17:41:56.933Z,11.50
2023-04-14T17:44:34.222Z,11.40
2023-04-14T17:47:12.905Z,11.40
2023-04-14T17:49:39.696Z,11.30
2023-04-14T17:52:07.791Z,11.30
2023-04-14T17:54:35.044Z,11.20
2023-04-14T17:57:02.072Z,11.10
2023-04-14T17:59:28.835Z,11.10
2023-04-14T18:01:55.721Z,11.00
2023-04-14T18:04:22.597Z,11.10
2023-04-14T18:06:50.193Z,11.10
2023-04-14T18:09:17.616Z,11.00
2023-04-14T18:11:44.363Z,11.00
2023-04-14T18:14:11.037Z,11.00
2023-04-14T18:16:37.932Z,11.00
2023-04-14T18:19:04.838Z,10.90
2023-04-14T18:21:31.561Z,10.80
2023-04-14T18:26:28.125Z,10.80
2023-04-14T18:28:56.483Z,10.70
2023-04-14T18:31:23.632Z,10.70
2023-04-14T18:33:51.078Z,10.80
2023-04-14T18:36:18.009Z,10.70
2023-04-14T18:38:44.855Z,10.70
2023-04-14T18:41:11.788Z,10.70
2023-04-14T18:43:38.573Z,10.70
2023-04-14T18:46:05.317Z,10.70
2023-04-14T18:48:32.020Z,10.60
2023-04-14T18:51:01.931Z,10.60
2023-04-14T18:53:28.867Z,10.50
2023-04-14T18:55:55.645Z,10.50
2023-04-14T18:58:22.963Z,10.40
2023-04-14T19:00:49.773Z,10.30
2023-04-14T19:03:16.960Z,10.30
2023-04-14T19:05:43.914Z,10.30
2023-04-14T19:08:10.738Z,10.20
2023-04-14T19:10:37.696Z,10.20
2023-04-14T19:13:04.437Z,10.20
2023-04-14T19:15:31.160Z,10.10
2023-04-14T19:17:58.039Z,10.10
2023-04-14T19:20:25.541Z,10.00
2023-04-14T19:22:52.369Z,10.00
2023-04-14T19:25:19.447Z,9.90
2023-04-14T19:27:46.126Z,9.90
2023-04-14T19:30:13.739Z,9.80
2023-04-14T19:32:41.489Z,9.70
2023-04-14T19:35:09.064Z,9.80
2023-04-14T19:37:36.098Z,9.70
2023-04-14T19:40:06.099Z,9.60
2023-04-14T19:42:33.354Z,9.50
2023-04-14T19:45:00.671Z,9.40
2023-04-14T19:47:27.860Z,9.40
2023-04-14T19:49:55.210Z,9.30
2023-04-14T19:52:22.400Z,9.30
2023-04-14T19:54:49.948Z,9.10
2023-04-14T19:57:17.034Z,9.10
2023-04-14T19:59:44.302Z,9.00
2023-04-14T20:02:13.368Z,9.00
2023-04-14T20:04:40.740Z,8.90
2023-04-14T20:07:07.758Z,9.00
2023-04-14T20:09:34.784Z,9.00
2023-04-14T20:12:02.428Z,9.00
2023-04-14T20:14:29.528Z,8.80
2023-04-14T20:16:56.850Z,8.80
2023-04-14T20:19:24.428Z,8.90
2023-04-14T20:21:51.233Z,8.90
2023-04-14T20:24:18.064Z,8.80
2023-04-14T20:26:45.205Z,8.80
2023-04-14T20:29:12.172Z,8.80
2023-04-14T20:31:39.454Z,8.70
2023-04-14T20:34:06.565Z,8.70
2023-04-14T20:36:35.972Z,8.70
2023-04-14T20:39:07.131Z,8.70
2023-04-14T20:41:34.752Z,8.70
2023-04-14T20:44:01.706Z,8.70
2023-04-14T20:46:29.045Z,8.70
2023-04-14T20:48:56.742Z,8.60
2023-04-14T20:51:23.616Z,8.60
2023-04-14T20:53:50.861Z,8.50
2023-04-14T20:56:17.904Z,8.50
2023-04-14T20:58:45.570Z,8.50
2023-04-14T21:01:12.649Z,8.40
2023-04-14T21:03:39.735Z,8.40
2023-04-14T21:06:06.692Z,8.30
2023-04-14T21:08:33.548Z,8.30
2023-04-14T21:11:15.679Z,8.20
2023-04-14T21:15:28.151Z,8.10
2023-04-14T21:16:32.793Z,8.00
2023-04-14T21:19:01.163Z,8.00
2023-04-14T21:21:28.081Z,7.90
2023-04-14T21:23:54.828Z,7.90
2023-04-14T21:26:22.013Z,7.80
2023-04-14T21:28:48.721Z,7.70
2023-04-14T21:31:15.817Z,7.70
2023-04-14T21:33:42.663Z,7.70
2023-04-14T21:36:09.821Z,7.70
2023-04-14T21:38:37.894Z,7.70
2023-04-14T21:41:04.905Z,7.70
2023-04-14T21:43:32.542Z,7.60
2023-04-14T21:45:59.425Z,7.50
2023-04-14T21:48:26.302Z,7.50
2023-04-14T21:50:53.039Z,7.40
2023-04-14T21:53:20.812Z,7.40
2023-04-14T21:55:47.634Z,7.30
2023-04-14T21:58:34.367Z,7.30
2023-04-14T22:01:01.558Z,7.20
2023-04-14T22:03:28.616Z,7.10
2023-04-14T22:05:55.492Z,7.00
2023-04-14T22:08:23.663Z,7.00
2023-04-14T22:10:50.371Z,6.90
2023-04-14T22:13:17.177Z,6.80
2023-04-14T22:15:43.980Z,6.60
2023-04-14T22:18:11.593Z,6.50
2023-04-14T22:20:39.320Z,6.40
2023-04-14T22:23:06.135Z,6.40
2023-04-14T22:25:33.249Z,6.40
2023-04-14T22:28:00.069Z,6.30
2023-04-14T22:30:28.351Z,6.20
2023-04-14T22:32:56.076Z,6.30
2023-04-14T22:35:23.379Z,6.30
2023-04-14T22:37:50.065Z,6.30
2023-04-14T22:40:17.128Z,6.20
2023-04-14T22:42:43.803Z,6.30
2023-04-14T22:45:10.681Z,6.20
2023-04-14T22:47:37.454Z,6.20
2023-04-14T22:50:04.487Z,5.80
2023-04-14T22:52:31.690Z,5.80
2023-04-14T22:54:58.421Z,5.70
2023-04-14T22:57:26.530Z,5.80
2023-04-14T22:59:53.457Z,5.80
2023-04-14T23:02:20.373Z,5.80
2023-04-14T23:04:48.060Z,5.80
2023-04-14T23:07:15.688Z,5.80
2023-04-14T23:09:42.668Z,5.80
2023-04-14T23:12:09.368Z,5.80
2023-04-14T23:14:36.445Z,5.70
2023-04-14T23:17:03.195Z,5.70
2023-04-14T23:19:30.074Z,5.70
2023-04-14T23:21:56.923Z,5.70
2023-04-14T23:24:23.726Z,5.70
2023-04-14T23:26:50.445Z,5.60
2023-04-14T23:29:17.212Z,5.60
2023-04-14T23:31:44.025Z,5.70
2023-04-14T23:34:11.107Z,5.70
2023-04-14T23:36:37.970Z,5.50
2023-04-14T23:39:05.833Z,5.20
2023-04-14T23:41:32.698Z,5.10
2023-04-14T23:43:59.432Z,5.10
2023-04-14T23:46:26.485Z,5.10
2023-04-14T23:48:53.507Z,5.20
2023-04-14T23:51:22.386Z,5.20
2023-04-14T23:53:49.414Z,5.30
2023-04-14T23:56:16.656Z,5.30
2023-04-14T23:58:43.890Z,5.40
